Time;durP1;ratioP1;P1;durP2;ratioP2;P2;SDS_P1;SDS_P2;PMS_P1;PMS_P2;Temp;Humidity;BMP_temperature;BMP_pressure;BME280_temperature;BME280_humidity;BME280_pressure;Samples;Min_cycle;Max_cycle;Signal;HPM_P1;HPM_P2
2022/08/23 00:00:12;;;;;;;;;;;;;;;14.20;88.73;98182.19;5066946;28;19908;-70
2022/08/23 00:02:37;;;;;;;;;;;;;;;14.14;90.01;98174.53;5064431;28;19972;-70
2022/08/23 00:05:03;;;;;;;;;;;;;;;14.14;90.56;98179.81;5067125;28;20220;-70
2022/08/23 00:07:28;;;;;;;;;;;;;;;14.13;91.08;98188.66;5066748;28;19983;-70
2022/08/23 00:09:54;;;;;;;;;;;;;;;14.20;91.02;98184.81;5061763;28;19924;-70
2022/08/23 00:12:22;;;;;;;;;;;;;;;14.16;89.89;98177.94;5048950;28;19931;-70
2022/08/23 00:14:49;;;;;;;;;;;;;;;14.12;89.68;98181.66;5047494;28;19916;-70
2022/08/23 00:17:14;;;;;;;;;;;;;;;14.18;89.40;98178.75;5047526;28;19931;-70
2022/08/23 00:19:40;;;;;;;;;;;;;;;14.28;89.22;98193.38;5047726;28;20200;-70
2022/08/23 00:22:06;;;;;;;;;;;;;;;14.31;88.60;98198.53;5057279;28;19913;-70
2022/08/23 00:24:32;;;;;;;;;;;;;;;14.02;88.42;98185.59;5066727;28;19943;-70
2022/08/23 00:27:16;;;;;;;;;;;;;;;13.96;88.46;98191.13;5066428;28;19909;-70
2022/08/23 00:29:43;;;;;;;;;;;;;;;13.78;89.38;98192.72;5066518;28;19913;-69
2022/08/23 00:32:10;;;;;;;;;;;;;;;13.75;89.32;98197.25;5064614;28;19913;-69
2022/08/23 00:34:36;;;;;;;;;;;;;;;13.86;89.27;98200.34;5066790;28;19947;-69
2022/08/23 00:37:01;;;;;;;;;;;;;;;13.84;89.19;98191.59;5067312;28;19962;-69
2022/08/23 00:39:26;;;;;;;;;;;;;;;13.82;89.63;98194.31;5066983;28;19904;-69
2022/08/23 00:41:55;;;;;;;;;;;;;;;13.63;89.32;98192.41;5065545;28;19912;-69
2022/08/23 00:50:04;;;;;;;;;;;;;;;13.78;90.27;98210.34;5060121;28;20132;-69
2022/08/23 00:52:33;;;;;;;;;;;;;;;13.85;90.32;98209.19;5061012;28;19940;-69
2022/08/23 00:54:58;;;;;;;;;;;;;;;13.83;89.72;98205.75;5065930;28;19909;-69
2022/08/23 00:57:25;;;;;;;;;;;;;;;13.76;89.65;98204.28;5066178;28;19908;-69
2022/08/23 00:59:50;;;;;;;;;;;;;;;13.50;89.59;98204.38;5066169;28;19915;-69
2022/08/23 01:02:16;;;;;;;;;;;;;;;13.35;91.18;98202.34;5053893;28;20125;-69
2022/08/23 01:04:48;;;;;;;;;;;;;;;13.38;92.06;98210.16;5047708;28;19931;-69
2022/08/23 01:07:22;;;;;;;;;;;;;;;13.45;91.56;98209.00;5065301;28;19916;-69
2022/08/23 01:09:48;;;;;;;;;;;;;;;13.45;91.27;98209.00;5065958;28;20140;-69
2022/08/23 01:12:17;;;;;;;;;;;;;;;13.26;91.46;98211.47;5052249;28;19913;-69
2022/08/23 01:14:45;;;;;;;;;;;;;;;13.38;91.34;98207.50;5046400;28;19916;-69
2022/08/23 01:17:13;;;;;;;;;;;;;;;13.41;91.44;98212.69;5046348;28;19980;-69
2022/08/23 01:19:42;;;;;;;;;;;;;;;13.29;91.05;98203.41;5046302;28;19976;-69
2022/08/23 01:22:11;;;;;;;;;;;;;;;13.30;91.32;98209.56;5054286;28;19915;-69
2022/08/23 01:24:36;;;;;;;;;;;;;;;13.25;90.94;98206.25;5061869;28;19939;-69
2022/08/23 01:27:02;;;;;;;;;;;;;;;13.27;91.40;98214.97;5065226;28;19959;-69
2022/08/23 01:29:28;;;;;;;;;;;;;;;13.22;91.36;98211.66;5065645;28;20244;-69
2022/08/23 01:31:53;;;;;;;;;;;;;;;13.24;91.76;98220.34;5063742;28;19916;-69
2022/08/23 01:34:23;;;;;;;;;;;;;;;13.22;91.69;98212.47;5065454;28;19909;-69
2022/08/23 01:36:48;;;;;;;;;;;;;;;13.06;91.12;98215.75;5064121;28;19915;-69
2022/08/23 01:39:14;;;;;;;;;;;;;;;12.98;91.65;98219.47;5063756;28;19908;-69
2022/08/23 01:41:39;;;;;;;;;;;;;;;12.91;92.20;98223.25;5057224;28;19909;-69
2022/08/23 01:44:05;;;;;;;;;;;;;;;12.98;92.36;98224.75;5065246;28;19909;-69
2022/08/23 01:46:31;;;;;;;;;;;;;;;12.83;91.74;98225.31;5064929;28;19939;-69
2022/08/23 01:48:57;;;;;;;;;;;;;;;12.93;92.76;98225.84;5065111;28;19912;-69
2022/08/23 01:51:23;;;;;;;;;;;;;;;12.99;92.14;98226.53;5055086;28;19920;-69
2022/08/23 01:53:49;;;;;;;;;;;;;;;12.86;91.80;98224.34;5045732;28;20193;-69
2022/08/23 01:56:18;;;;;;;;;;;;;;;12.57;92.81;98227.97;5045910;28;19909;-70
2022/08/23 01:58:44;;;;;;;;;;;;;;;12.51;93.95;98227.31;5044928;28;19981;-70
2022/08/23 02:01:09;;;;;;;;;;;;;;;12.46;94.65;98229.22;5053435;28;19909;-70
2022/08/23 02:03:36;;;;;;;;;;;;;;;12.53;95.41;98215.78;5065120;28;19915;-70
2022/08/23 02:06:02;;;;;;;;;;;;;;;12.63;95.26;98216.34;5064849;28;19922;-70
2022/08/23 02:11:14;;;;;;;;;;;;;;;12.52;93.35;98219.34;5056392;28;19915;-70
2022/08/23 02:13:39;;;;;;;;;;;;;;;12.61;93.75;98223.44;5045275;28;19908;-70
2022/08/23 02:16:05;;;;;;;;;;;;;;;12.46;94.11;98230.09;5045267;28;20247;-70
2022/08/23 02:18:30;;;;;;;;;;;;;;;12.49;94.35;98234.41;5045295;28;19946;-70
2022/08/23 02:20:55;;;;;;;;;;;;;;;12.55;94.63;98235.09;5046349;28;19976;-70
2022/08/23 02:23:21;;;;;;;;;;;;;;;12.54;94.86;98228.09;5052920;28;19909;-70
2022/08/23 02:25:46;;;;;;;;;;;;;;;12.54;94.33;98228.09;5064193;28;19908;-69
2022/08/23 02:28:11;;;;;;;;;;;;;;;12.22;95.10;98230.91;5064513;28;19947;-69
2022/08/23 02:30:38;;;;;;;;;;;;;;;12.23;95.81;98230.00;5056744;28;19913;-69
2022/08/23 02:33:04;;;;;;;;;;;;;;;12.27;96.23;98239.53;5064344;28;19909;-69
2022/08/23 02:35:32;;;;;;;;;;;;;;;12.36;95.87;98239.25;5064543;28;19992;-69
2022/08/23 02:37:57;;;;;;;;;;;;;;;12.37;94.90;98242.75;5064281;28;20143;-69
2022/08/23 02:40:23;;;;;;;;;;;;;;;12.30;94.66;98239.44;5054233;28;19936;-69
2022/08/23 02:42:48;;;;;;;;;;;;;;;12.42;94.91;98248.72;5059414;28;20224;-69
2022/08/23 02:45:13;;;;;;;;;;;;;;;12.39;94.76;98244.44;5045051;28;20157;-69
2022/08/23 02:47:39;;;;;;;;;;;;;;;12.20;94.73;98243.28;5044662;28;20117;-70
2022/08/23 02:50:05;;;;;;;;;;;;;;;12.10;95.12;98244.50;5053036;28;19930;-70
2022/08/23 02:52:31;;;;;;;;;;;;;;;12.07;95.16;98246.38;5052212;28;19984;-70
2022/08/23 02:54:56;;;;;;;;;;;;;;;12.17;95.54;98259.22;5045739;28;19924;-70
2022/08/23 02:57:21;;;;;;;;;;;;;;;12.22;95.66;98259.91;5062308;28;20108;-70
2022/08/23 02:59:46;;;;;;;;;;;;;;;12.10;94.93;98257.69;5063991;28;19908;-70
2022/08/23 03:02:12;;;;;;;;;;;;;;;12.08;95.54;98259.50;5063878;28;19995;-70
2022/08/23 03:04:37;;;;;;;;;;;;;;;12.14;95.38;98263.72;5055623;28;19948;-70
2022/08/23 03:07:03;;;;;;;;;;;;;;;12.08;94.96;98264.78;5048909;28;19909;-70
2022/08/23 03:09:28;;;;;;;;;;;;;;;11.96;95.71;98259.03;5044578;28;19921;-70
2022/08/23 03:11:53;;;;;;;;;;;;;;;11.88;96.13;98261.91;5044411;28;19979;-70
2022/08/23 03:14:19;;;;;;;;;;;;;;;11.94;96.42;98267.00;5045561;28;20322;-70
2022/08/23 03:16:44;;;;;;;;;;;;;;;12.06;96.24;98271.03;5056674;28;19912;-70
2022/08/23 03:19:09;;;;;;;;;;;;;;;11.96;95.96;98273.06;5056936;28;20086;-70
2022/08/23 03:21:35;;;;;;;;;;;;;;;11.99;95.80;98265.06;5044328;28;19916;-70
2022/08/23 03:24:00;;;;;;;;;;;;;;;11.96;95.68;98267.78;5044279;28;19915;-70
2022/08/23 03:26:25;;;;;;;;;;;;;;;11.85;95.67;98267.25;5053665;28;20196;-70
2022/08/23 03:28:51;;;;;;;;;;;;;;;11.68;95.42;98260.75;5063502;28;19913;-69
2022/08/23 03:31:16;;;;;;;;;;;;;;;11.67;95.54;98262.53;5063478;28;19999;-69
2022/08/23 03:33:41;;;;;;;;;;;;;;;11.85;96.21;98267.25;5053320;28;19912;-69
2022/08/23 03:36:09;;;;;;;;;;;;;;;11.70;95.26;98262.44;5050922;28;20109;-69
2022/08/23 03:38:35;;;;;;;;;;;;;;;11.62;97.13;98272.38;5045158;28;19909;-69
2022/08/23 03:41:00;;;;;;;;;;;;;;;11.62;96.98;98269.72;5044128;28;19916;-69
2022/08/23 03:43:26;;;;;;;;;;;;;;;11.55;97.97;98270.75;5044171;28;19909;-69
2022/08/23 03:45:51;;;;;;;;;;;;;;;11.68;97.98;98272.16;5048736;28;19962;-69
2022/08/23 03:48:17;;;;;;;;;;;;;;;11.66;97.60;98275.75;5063330;28;19920;-69
2022/08/23 03:50:42;;;;;;;;;;;;;;;11.55;98.38;98278.66;5063169;28;19908;-70
2022/08/23 03:53:07;;;;;;;;;;;;;;;11.45;99.51;98282.47;5048558;28;19909;-70
2022/08/23 03:55:33;;;;;;;;;;;;;;;11.44;99.69;98285.16;5044759;28;19909;-70
2022/08/23 03:57:58;;;;;;;;;;;;;;;11.47;98.97;98285.94;5057663;28;20131;-70
2022/08/23 04:00:24;;;;;;;;;;;;;;;11.44;97.96;98290.41;5060139;28;19940;-70
2022/08/23 04:02:49;;;;;;;;;;;;;;;11.39;97.83;98287.06;5063374;28;19948;-70
2022/08/23 04:05:14;;;;;;;;;;;;;;;11.46;98.15;98294.75;5062997;28;19917;-70
2022/08/23 04:07:40;;;;;;;;;;;;;;;11.56;98.27;98296.22;5062324;28;19909;-70
2022/08/23 04:10:07;;;;;;;;;;;;;;;11.72;98.52;98302.81;5045156;28;19905;-70
2022/08/23 04:12:32;;;;;;;;;;;;;;;11.66;96.72;98302.13;5063191;28;19912;-70
2022/08/23 04:14:57;;;;;;;;;;;;;;;11.50;95.77;98301.66;5063756;28;19911;-70
2022/08/23 04:17:23;;;;;;;;;;;;;;;11.33;95.73;98295.97;5063755;28;19904;-70
2022/08/23 04:19:48;;;;;;;;;;;;;;;11.19;97.07;98302.53;5063699;28;19905;-70
2022/08/23 04:22:15;;;;;;;;;;;;;;;11.04;98.24;98306.44;5067297;28;20200;-70
2022/08/23 04:24:41;;;;;;;;;;;;;;;10.98;99.15;98304.84;5067314;28;20128;-70
2022/08/23 04:27:07;;;;;;;;;;;;;;;11.04;98.70;98306.44;5067204;28;19904;-70
2022/08/23 04:29:33;;;;;;;;;;;;;;;11.01;99.02;98311.78;5067037;28;19916;-70
2022/08/23 04:31:58;;;;;;;;;;;;;;;11.13;99.25;98313.25;5067211;28;19912;-70
2022/08/23 04:34:23;;;;;;;;;;;;;;;11.04;99.48;98316.97;5067386;28;20100;-70
2022/08/23 04:36:49;;;;;;;;;;;;;;;11.00;100.00;98325.88;5067194;28;20103;-70
2022/08/23 04:39:14;;;;;;;;;;;;;;;11.07;100.00;98327.44;5067008;28;19904;-70
2022/08/23 04:44:24;;;;;;;;;;;;;;;11.37;100.00;98337.19;5067006;28;19926;-69
2022/08/23 04:46:49;;;;;;;;;;;;;;;11.28;100.00;98329.50;5066873;28;20192;-69
2022/08/23 04:49:15;;;;;;;;;;;;;;;11.27;99.80;98330.44;5066789;28;19905;-69
2022/08/23 04:51:40;;;;;;;;;;;;;;;11.30;99.31;98340.88;5067096;28;19932;-69
2022/08/23 04:54:06;;;;;;;;;;;;;;;11.36;99.03;98345.97;5066738;28;20109;-69
2022/08/23 04:56:32;;;;;;;;;;;;;;;11.34;98.44;98353.06;5066654;28;19911;-69
2022/08/23 04:58:57;;;;;;;;;;;;;;;11.49;98.45;98351.78;5066696;28;19932;-69
2022/08/23 05:01:25;;;;;;;;;;;;;;;11.61;97.90;98354.94;5066644;28;19905;-69
2022/08/23 05:03:52;;;;;;;;;;;;;;;11.76;97.57;98359.81;5066636;28;19909;-69
2022/08/23 05:06:17;;;;;;;;;;;;;;;11.75;96.59;98366.00;5066511;28;19947;-69
2022/08/23 05:08:42;;;;;;;;;;;;;;;11.70;96.13;98367.88;5066378;28;19905;-69
2022/08/23 05:11:08;;;;;;;;;;;;;;;11.76;95.97;98373.00;5066440;28;19916;-69
2022/08/23 05:13:34;;;;;;;;;;;;;;;11.92;96.22;98374.28;5066410;28;19963;-69
2022/08/23 05:15:59;;;;;;;;;;;;;;;12.51;94.82;98386.56;5066386;28;19904;-69
2022/08/23 05:18:25;;;;;;;;;;;;;;;13.02;92.78;98395.50;5066308;28;19905;-69
2022/08/23 05:20:50;;;;;;;;;;;;;;;13.67;89.03;98400.34;5066544;28;19904;-69
2022/08/23 05:23:15;;;;;;;;;;;;;;;14.12;85.03;98399.53;5066475;28;20124;-69
2022/08/23 05:25:49;;;;;;;;;;;;;;;14.63;83.27;98399.38;5066196;28;19912;-69
2022/08/23 05:28:16;;;;;;;;;;;;;;;14.75;81.98;98393.59;5065958;28;19911;-69
2022/08/23 05:30:41;;;;;;;;;;;;;;;15.59;79.96;98402.44;5065945;28;19913;-69
2022/08/23 05:33:06;;;;;;;;;;;;;;;15.83;77.69;98402.28;5064947;28;19904;-69
2022/08/23 05:35:32;;;;;;;;;;;;;;;16.07;77.09;98405.63;5065966;28;20215;-70
2022/08/23 05:37:59;;;;;;;;;;;;;;;16.74;75.71;98415.75;5065974;28;19943;-70
2022/08/23 05:40:25;;;;;;;;;;;;;;;17.36;72.91;98425.13;5065860;28;19975;-70
2022/08/23 05:42:50;;;;;;;;;;;;;;;17.77;70.70;98421.28;5065907;28;20200;-69
2022/08/23 05:45:15;;;;;;;;;;;;;;;18.13;69.29;98414.06;5065758;28;19943;-69
2022/08/23 05:47:41;;;;;;;;;;;;;;;18.64;67.92;98428.13;5065684;28;19905;-70
2022/08/23 05:50:06;;;;;;;;;;;;;;;19.03;67.26;98425.06;5065645;28;19904;-69
2022/08/23 05:52:31;;;;;;;;;;;;;;;19.25;65.23;98417.56;5065619;28;19909;-69
2022/08/23 05:54:56;;;;;;;;;;;;;;;19.67;64.16;98428.44;5065666;28;19943;-69
2022/08/23 05:57:22;;;;;;;;;;;;;;;20.17;62.93;98425.44;5065573;28;19971;-69
2022/08/23 05:59:47;;;;;;;;;;;;;;;20.55;61.99;98430.16;5065490;28;19905;-69
2022/08/23 06:02:12;;;;;;;;;;;;;;;20.50;60.99;98420.69;5065458;28;19905;-69
2022/08/23 06:04:37;;;;;;;;;;;;;;;19.88;62.24;98420.94;5065417;28;19911;-69
2022/08/23 06:07:04;;;;;;;;;;;;;;;21.21;60.90;98441.94;5065400;28;19911;-69
2022/08/23 06:09:29;;;;;;;;;;;;;;;21.41;59.08;98442.44;5065244;28;19947;-69
2022/08/23 06:11:55;;;;;;;;;;;;;;;21.98;58.38;98438.56;5065355;28;19905;-69
2022/08/23 06:14:20;;;;;;;;;;;;;;;22.17;58.45;98444.38;5065458;28;19904;-69
2022/08/23 06:16:46;;;;;;;;;;;;;;;22.18;56.84;98435.38;5065207;28;19927;-69
2022/08/23 06:19:13;;;;;;;;;;;;;;;23.07;54.99;98451.34;5065116;28;19930;-69
2022/08/23 06:21:38;;;;;;;;;;;;;;;23.03;55.13;98460.56;5065063;28;19911;-69
2022/08/23 06:24:03;;;;;;;;;;;;;;;23.37;54.51;98462.56;5065093;28;19905;-69
2022/08/23 06:26:30;;;;;;;;;;;;;;;23.67;54.64;98479.13;5065003;28;19905;-69
2022/08/23 06:28:57;;;;;;;;;;;;;;;24.00;54.16;98484.69;5064876;28;20251;-69
2022/08/23 06:34:08;;;;;;;;;;;;;;;24.75;51.85;98473.41;5064901;28;19911;-69
2022/08/23 06:36:35;;;;;;;;;;;;;;;24.45;51.77;98467.69;5065094;28;19905;-70
2022/08/23 06:39:00;;;;;;;;;;;;;;;23.07;55.30;98454.03;5064796;28;19905;-69
2022/08/23 06:41:26;;;;;;;;;;;;;;;22.12;58.50;98446.53;5064748;28;19911;-69
2022/08/23 06:43:51;;;;;;;;;;;;;;;20.99;60.95;98441.59;5064495;28;19905;-69
2022/08/23 06:46:20;;;;;;;;;;;;;;;20.37;63.48;98431.28;5064688;28;19908;-69
2022/08/23 06:48:46;;;;;;;;;;;;;;;20.52;64.97;98446.38;5064562;28;19912;-69
2022/08/23 06:51:13;;;;;;;;;;;;;;;20.04;65.85;98438.66;5064863;28;19908;-69
2022/08/23 06:53:38;;;;;;;;;;;;;;;19.79;67.87;98438.41;5064497;28;19947;-69
2022/08/23 06:56:04;;;;;;;;;;;;;;;20.16;67.48;98451.31;5064613;28;19905;-69
2022/08/23 06:58:29;;;;;;;;;;;;;;;20.08;68.14;98450.88;5064575;28;20196;-69
2022/08/23 07:00:54;;;;;;;;;;;;;;;19.86;68.83;98445.09;5064518;28;19932;-69
2022/08/23 07:03:19;;;;;;;;;;;;;;;19.80;69.82;98450.78;5064505;28;19905;-69
2022/08/23 07:05:44;;;;;;;;;;;;;;;19.69;70.31;98447.91;5064413;28;19980;-69
2022/08/23 07:08:10;;;;;;;;;;;;;;;19.71;70.38;98445.97;5064314;28;19908;-69
2022/08/23 07:10:35;;;;;;;;;;;;;;;19.51;70.79;98453.44;5064596;28;19947;-69
2022/08/23 07:13:01;;;;;;;;;;;;;;;19.39;71.17;98449.66;5064368;28;19904;-69
2022/08/23 07:15:26;;;;;;;;;;;;;;;19.69;71.00;98453.25;5064326;28;19904;-69
2022/08/23 07:17:51;;;;;;;;;;;;;;;21.45;66.18;98476.94;5064301;28;19943;-69
2022/08/23 07:20:17;;;;;;;;;;;;;;;21.57;63.27;98473.47;5064199;28;19905;-69
2022/08/23 07:22:43;;;;;;;;;;;;;;;23.12;61.66;98489.44;5063067;28;19988;-69
2022/08/23 07:25:08;;;;;;;;;;;;;;;25.78;54.43;98491.94;5064495;28;19909;-69
2022/08/23 07:27:33;;;;;;;;;;;;;;;27.24;51.02;98496.31;5064063;28;20152;-69
2022/08/23 07:29:59;;;;;;;;;;;;;;;28.70;47.07;98491.66;5064064;28;19912;-69
2022/08/23 07:32:24;;;;;;;;;;;;;;;29.50;46.19;98499.25;5064113;28;19911;-69
2022/08/23 07:34:49;;;;;;;;;;;;;;;30.20;44.88;98499.41;5064228;28;20232;-69
2022/08/23 07:37:16;;;;;;;;;;;;;;;30.67;43.53;98490.00;5064323;28;19908;-69
2022/08/23 07:39:41;;;;;;;;;;;;;;;30.04;43.36;98485.66;5064369;28;20034;-70
2022/08/23 07:42:07;;;;;;;;;;;;;;;30.74;42.60;98485.66;5064134;28;20204;-69
2022/08/23 07:44:33;;;;;;;;;;;;;;;30.99;41.28;98485.66;5064263;28;19912;-69
2022/08/23 07:46:59;;;;;;;;;;;;;;;30.30;42.45;98481.19;5064292;28;19905;-69
2022/08/23 07:49:24;;;;;;;;;;;;;;;30.96;42.76;98485.13;5063965;28;20218;-69
2022/08/23 07:51:50;;;;;;;;;;;;;;;31.97;40.53;98496.88;5064050;28;20108;-69
2022/08/23 07:54:17;;;;;;;;;;;;;;;31.85;40.37;98495.47;5064196;28;20196;-69
2022/08/23 07:56:42;;;;;;;;;;;;;;;32.34;39.00;98505.47;5066901;28;19968;-69
2022/08/23 07:59:08;;;;;;;;;;;;;;;32.28;39.34;98497.09;5067851;28;19912;-69
2022/08/23 08:01:33;;;;;;;;;;;;;;;32.28;38.88;98497.94;5067757;28;19904;-69
2022/08/23 08:04:00;;;;;;;;;;;;;;;32.85;38.08;98498.84;5067768;28;19912;-69
2022/08/23 08:06:31;;;;;;;;;;;;;;;33.56;37.21;98505.16;5067638;28;20082;-69
2022/08/23 08:08:56;;;;;;;;;;;;;;;33.53;36.34;98501.97;5067544;28;19909;-69
2022/08/23 08:11:23;;;;;;;;;;;;;;;33.12;38.07;98503.91;5067640;28;19927;-69
2022/08/23 08:13:49;;;;;;;;;;;;;;;32.69;37.89;98501.56;5067608;28;19927;-69
2022/08/23 08:16:22;;;;;;;;;;;;;;;33.67;36.34;98512.13;5067481;28;19912;-69
2022/08/23 08:18:47;;;;;;;;;;;;;;;33.79;35.80;98505.25;5067471;28;19943;-69
2022/08/23 08:21:13;;;;;;;;;;;;;;;33.55;36.77;98508.06;5067358;28;20136;-70
2022/08/23 08:23:39;;;;;;;;;;;;;;;33.69;37.02;98510.06;5067623;28;20233;-70
2022/08/23 08:26:05;;;;;;;;;;;;;;;33.32;36.59;98501.66;5067333;28;19972;-70
2022/08/23 08:28:31;;;;;;;;;;;;;;;33.73;35.78;98511.41;5067125;28;19908;-70
2022/08/23 08:30:57;;;;;;;;;;;;;;;33.98;35.10;98511.13;5067162;28;19912;-70
2022/08/23 08:33:23;;;;;;;;;;;;;;;34.19;34.36;98513.22;5067185;28;19912;-70
2022/08/23 08:35:49;;;;;;;;;;;;;;;33.87;34.65;98508.81;5067112;28;19943;-70
2022/08/23 08:38:14;;;;;;;;;;;;;;;34.21;34.77;98508.44;5067079;28;19904;-70
2022/08/23 08:40:39;;;;;;;;;;;;;;;34.19;34.19;98513.22;5067036;28;19947;-70
2022/08/23 08:43:07;;;;;;;;;;;;;;;34.40;34.22;98505.28;5066989;28;19911;-70
2022/08/23 08:45:53;;;;;;;;;;;;;;;35.10;33.38;98517.66;5066943;28;19967;-70
2022/08/23 08:48:21;;;;;;;;;;;;;;;34.83;33.29;98512.78;5066448;28;19915;-70
2022/08/23 08:50:48;;;;;;;;;;;;;;;34.43;34.03;98510.38;5066880;28;19905;-70
2022/08/23 08:53:13;;;;;;;;;;;;;;;34.41;34.76;98506.97;5066799;28;19906;-70
2022/08/23 08:55:43;;;;;;;;;;;;;;;34.96;33.65;98513.88;5066788;28;20103;-70
2022/08/23 08:58:13;;;;;;;;;;;;;;;35.23;32.54;98519.75;5067000;28;19905;-70
2022/08/23 09:00:39;;;;;;;;;;;;;;;35.47;32.26;98523.13;5066653;28;19973;-70
2022/08/23 09:03:08;;;;;;;;;;;;;;;35.59;31.98;98516.09;5066621;28;19905;-70
2022/08/23 09:05:38;;;;;;;;;;;;;;;35.21;32.66;98519.09;5066593;28;19905;-70
2022/08/23 09:08:22;;;;;;;;;;;;;;;34.61;32.80;98513.66;5066269;28;19915;-70
2022/08/23 09:10:56;;;;;;;;;;;;;;;34.82;33.70;98514.66;5066458;28;20018;-70
2022/08/23 09:13:21;;;;;;;;;;;;;;;35.56;32.22;98521.13;5066394;28;19909;-70
2022/08/23 09:15:56;;;;;;;;;;;;;;;34.88;32.85;98504.88;5066380;28;19927;-70
2022/08/23 09:18:23;;;;;;;;;;;;;;;35.22;32.34;98513.44;5066599;28;20204;-70
2022/08/23 09:20:51;;;;;;;;;;;;;;;35.20;32.91;98506.47;5066549;28;20100;-70
2022/08/23 09:23:22;;;;;;;;;;;;;;;35.34;32.36;98501.03;5066221;28;19926;-70
2022/08/23 09:25:55;;;;;;;;;;;;;;;34.88;32.65;98493.94;5066209;28;19939;-69
2022/08/23 09:28:20;;;;;;;;;;;;;;;35.10;33.04;98490.31;5066084;28;19986;-70
2022/08/23 09:30:48;;;;;;;;;;;;;;;34.89;33.34;98495.63;5065973;28;19913;-70
2022/08/23 09:33:36;;;;;;;;;;;;;;;34.90;33.09;98489.16;5066062;28;19970;-70
2022/08/23 09:36:20;;;;;;;;;;;;;;;34.92;32.84;98500.75;5066056;28;19904;-70
2022/08/23 09:38:50;;;;;;;;;;;;;;;35.27;31.84;98500.03;5065953;28;19908;-70
2022/08/23 09:41:18;;;;;;;;;;;;;;;35.20;32.65;98493.63;5065898;28;19943;-70
2022/08/23 09:43:47;;;;;;;;;;;;;;;35.29;32.08;98503.44;5065877;28;19942;-70
2022/08/23 09:46:23;;;;;;;;;;;;;;;35.14;32.79;98499.84;5066074;28;19908;-70
2022/08/23 09:48:48;;;;;;;;;;;;;;;35.30;31.71;98499.66;5065965;28;19908;-69
2022/08/23 09:51:16;;;;;;;;;;;;;;;35.26;31.93;98498.34;5065699;28;20255;-70
2022/08/23 09:53:48;;;;;;;;;;;;;;;35.10;32.19;98493.03;5065669;28;19924;-70
2022/08/23 09:56:18;;;;;;;;;;;;;;;35.15;31.90;98485.13;5064474;28;19904;-70
2022/08/23 09:58:45;;;;;;;;;;;;;;;35.41;32.32;98485.53;5065834;28;20092;-70
2022/08/23 10:01:27;;;;;;;;;;;;;;;35.21;32.54;98487.13;5065547;28;19967;-70
2022/08/23 10:04:10;;;;;;;;;;;;;;;35.14;30.94;98482.59;5065469;28;19904;-70
2022/08/23 10:06:37;;;;;;;;;;;;;;;35.16;31.97;98485.97;5065372;28;19904;-70
2022/08/23 10:09:04;;;;;;;;;;;;;;;34.98;31.59;98489.06;5065296;28;19951;-70
2022/08/23 10:11:31;;;;;;;;;;;;;;;34.88;31.51;98483.88;5065566;28;19946;-70
2022/08/23 10:13:56;;;;;;;;;;;;;;;35.28;32.12;98489.94;5065240;28;20295;-70
2022/08/23 10:16:56;;;;;;;;;;;;;;;34.97;31.87;98476.44;5065305;28;19905;-70
2022/08/23 10:19:30;;;;;;;;;;;;;;;35.08;31.76;98473.22;5064677;28;19951;-70
2022/08/23 10:22:15;;;;;;;;;;;;;;;34.78;31.34;98466.84;5065215;28;19987;-70
2022/08/23 10:24:49;;;;;;;;;;;;;;;34.30;31.71;98460.91;5065107;28;19904;-70
2022/08/23 10:30:07;;;;;;;;;;;;;;;33.36;33.24;98462.94;5064805;28;19920;-70
2022/08/23 10:32:32;;;;;;;;;;;;;;;33.20;33.62;98467.56;5064974;28;19940;-70
2022/08/23 10:34:57;;;;;;;;;;;;;;;34.38;32.29;98474.53;5064940;28;19905;-70
2022/08/23 10:37:29;;;;;;;;;;;;;;;34.64;30.63;98467.63;5064855;28;19904;-70
2022/08/23 10:40:18;;;;;;;;;;;;;;;34.66;31.71;98468.31;5064839;28;19905;-70
2022/08/23 10:42:49;;;;;;;;;;;;;;;34.94;31.04;98460.38;5059174;28;20109;-70
2022/08/23 10:45:25;;;;;;;;;;;;;;;34.36;31.23;98446.53;5064725;28;19943;-70
2022/08/23 10:48:11;;;;;;;;;;;;;;;35.04;30.97;98452.75;5064658;28;20249;-70
2022/08/23 10:50:48;;;;;;;;;;;;;;;35.20;30.57;98449.81;5057382;28;19971;-70
2022/08/23 10:53:14;;;;;;;;;;;;;;;35.01;30.88;98436.69;5064584;28;19943;-70
2022/08/23 10:56:01;;;;;;;;;;;;;;;35.42;30.92;98448.91;5064579;28;19980;-70
2022/08/23 10:58:29;;;;;;;;;;;;;;;34.68;30.44;98429.84;5064758;28;20210;-70
2022/08/23 11:00:55;;;;;;;;;;;;;;;34.62;30.66;98422.38;5064542;28;19912;-70
2022/08/23 11:03:28;;;;;;;;;;;;;;;34.81;30.62;98432.78;5064521;28;19908;-70
2022/08/23 11:06:12;;;;;;;;;;;;;;;34.27;31.26;98433.94;5064654;28;20188;-70
2022/08/23 11:08:44;;;;;;;;;;;;;;;34.38;30.79;98425.31;5064321;28;20207;-69
2022/08/23 11:11:28;;;;;;;;;;;;;;;34.08;30.84;98420.78;5064326;28;19905;-70
2022/08/23 11:13:54;;;;;;;;;;;;;;;34.24;31.41;98417.91;5064390;28;19966;-70
2022/08/23 11:16:41;;;;;;;;;;;;;;;34.38;31.06;98417.13;5064293;28;20197;-70
2022/08/23 11:19:10;;;;;;;;;;;;;;;34.61;30.38;98423.44;5064533;28;19957;-70
2022/08/23 11:21:40;;;;;;;;;;;;;;;34.70;30.66;98425.03;5064287;28;19905;-70
2022/08/23 11:24:05;;;;;;;;;;;;;;;35.02;30.54;98435.69;5064201;28;19975;-70
2022/08/23 11:26:38;;;;;;;;;;;;;;;34.88;30.92;98422.81;5064258;28;19905;-70
2022/08/23 11:29:07;;;;;;;;;;;;;;;34.81;31.24;98419.13;5064325;28;19908;-70
2022/08/23 11:31:32;;;;;;;;;;;;;;;34.61;30.47;98409.75;5067019;28;19912;-70
2022/08/23 11:34:16;;;;;;;;;;;;;;;34.17;31.47;98415.03;5068345;28;19905;-70
2022/08/23 11:37:01;;;;;;;;;;;;;;;33.68;30.36;98410.06;5068275;28;19947;-70
2022/08/23 11:39:26;;;;;;;;;;;;;;;32.96;31.92;98398.44;5068181;28;19904;-70
2022/08/23 11:41:54;;;;;;;;;;;;;;;32.81;31.83;98394.69;5068282;28;19946;-70
2022/08/23 11:44:41;;;;;;;;;;;;;;;32.59;32.86;98395.41;5068107;28;20115;-70
2022/08/23 11:47:09;;;;;;;;;;;;;;;32.14;33.84;98389.63;5068034;28;20100;-70
2022/08/23 11:49:48;;;;;;;;;;;;;;;32.44;33.34;98396.31;5067920;28;19908;-70
2022/08/23 11:52:25;;;;;;;;;;;;;;;32.30;34.73;98384.19;5067956;28;19905;-70
2022/08/23 11:55:03;;;;;;;;;;;;;;;32.43;33.18;98384.53;5067998;28;19905;-70
2022/08/23 11:57:47;;;;;;;;;;;;;;;32.26;34.56;98381.97;5068132;28;19938;-70
2022/08/23 12:00:31;;;;;;;;;;;;;;;31.90;35.02;98378.75;5067844;28;19909;-70
2022/08/23 12:03:03;;;;;;;;;;;;;;;31.79;34.53;98373.59;5067757;28;20104;-70
2022/08/23 12:05:37;;;;;;;;;;;;;;;31.50;34.56;98373.22;5067690;28;19911;-70
2022/08/23 12:08:02;;;;;;;;;;;;;;;31.80;33.73;98375.31;5067662;28;19931;-70
2022/08/23 12:10:40;;;;;;;;;;;;;;;31.48;35.59;98369.81;5067606;28;20223;-70
2022/08/23 12:13:21;;;;;;;;;;;;;;;31.14;36.41;98360.84;5067615;28;19904;-70
2022/08/23 12:16:04;;;;;;;;;;;;;;;31.17;35.48;98366.78;5067784;28;19909;-70
2022/08/23 12:18:34;;;;;;;;;;;;;;;31.28;35.43;98362.09;5067458;28;19913;-70
2022/08/23 12:21:00;;;;;;;;;;;;;;;31.39;34.89;98365.38;5067453;28;19908;-70
2022/08/23 12:23:26;;;;;;;;;;;;;;;31.23;34.78;98355.25;5067465;28;20235;-70
2022/08/23 12:26:21;;;;;;;;;;;;;;;30.88;35.71;98354.63;5067358;28;19905;-70
2022/08/23 12:28:48;;;;;;;;;;;;;;;30.79;35.42;98356.44;5067132;28;20227;-70
2022/08/23 12:31:28;;;;;;;;;;;;;;;30.52;35.26;98350.28;5067155;28;19913;-70
2022/08/23 12:34:06;;;;;;;;;;;;;;;30.66;36.10;98355.16;5067253;28;19936;-70
2022/08/23 12:36:37;;;;;;;;;;;;;;;30.91;35.64;98359.72;5067244;28;20135;-70
2022/08/23 12:39:03;;;;;;;;;;;;;;;31.03;35.29;98363.84;5067165;28;19958;-70
2022/08/23 12:41:31;;;;;;;;;;;;;;;30.86;35.41;98362.06;5066725;28;19947;-70
2022/08/23 12:44:07;;;;;;;;;;;;;;;30.81;37.14;98354.41;5067290;28;19904;-70
2022/08/23 12:46:32;;;;;;;;;;;;;;;30.79;35.82;98356.44;5067057;28;19905;-70
2022/08/23 12:48:57;;;;;;;;;;;;;;;30.97;35.43;98364.53;5066933;28;20082;-70
2022/08/23 12:51:22;;;;;;;;;;;;;;;30.72;34.52;98344.47;5066920;28;19908;-70
2022/08/23 12:53:48;;;;;;;;;;;;;;;30.88;35.44;98351.91;5066791;28;20082;-70
2022/08/23 12:56:16;;;;;;;;;;;;;;;30.34;35.03;98342.19;5066780;28;19913;-70
2022/08/23 12:58:45;;;;;;;;;;;;;;;30.09;35.54;98339.47;5066729;28;19905;-70
2022/08/23 13:01:24;;;;;;;;;;;;;;;30.03;35.91;98340.09;5066714;28;20196;-70
2022/08/23 13:03:53;;;;;;;;;;;;;;;30.18;35.78;98343.97;5066644;28;19904;-70
2022/08/23 13:06:21;;;;;;;;;;;;;;;30.20;37.05;98341.94;5066617;28;19936;-70